createdAt,value
2018-07-15T00:00:27.144Z,21.3
2018-07-15T00:01:28.539Z,21.3
2018-07-15T00:02:29.935Z,21.2
2018-07-15T00:03:31.335Z,21.2
2018-07-15T00:04:32.730Z,21.2
2018-07-15T00:05:34.126Z,21.2
2018-07-15T00:06:35.523Z,21.2
2018-07-15T00:07:36.919Z,21.2
2018-07-15T00:08:38.320Z,21.2
2018-07-15T00:09:39.716Z,21.2
2018-07-15T00:10:41.115Z,21.3
2018-07-15T00:11:42.508Z,21.1
2018-07-15T00:12:43.907Z,21.1
2018-07-15T00:13:45.299Z,21.0
2018-07-15T00:14:46.694Z,21.0
2018-07-15T00:15:48.085Z,21.0
2018-07-15T00:16:49.479Z,21.0
2018-07-15T00:17:50.885Z,21.0
2018-07-15T00:18:52.279Z,21.0
2018-07-15T00:19:53.674Z,20.9
2018-07-15T00:20:55.071Z,21.0
2018-07-15T00:21:56.464Z,21.0
2018-07-15T00:22:57.866Z,20.9
2018-07-15T00:23:59.252Z,20.9
2018-07-15T00:25:00.648Z,21.0
2018-07-15T00:26:02.041Z,20.9
2018-07-15T00:27:03.433Z,20.9
2018-07-15T00:28:04.887Z,20.9
2018-07-15T00:29:06.279Z,20.8
2018-07-15T00:30:07.675Z,20.9
2018-07-15T00:31:09.073Z,20.9
2018-07-15T00:32:10.475Z,20.9
2018-07-15T00:33:11.877Z,20.9
2018-07-15T00:34:13.260Z,20.8
2018-07-15T00:35:14.655Z,20.9
2018-07-15T00:36:16.051Z,20.8
2018-07-15T00:37:17.445Z,20.8
2018-07-15T00:38:18.838Z,20.7
2018-07-15T00:39:20.235Z,20.7
2018-07-15T00:40:21.628Z,20.7
2018-07-15T00:41:23.017Z,20.8
2018-07-15T00:42:24.432Z,20.7
2018-07-15T00:43:25.834Z,20.7
2018-07-15T00:44:27.233Z,20.7
2018-07-15T00:45:28.628Z,20.6
2018-07-15T00:46:30.021Z,20.6
2018-07-15T00:47:31.423Z,20.6
2018-07-15T00:48:32.819Z,20.6
2018-07-15T00:49:34.248Z,20.6
2018-07-15T00:50:35.644Z,20.5
2018-07-15T00:51:37.044Z,20.5
2018-07-15T00:52:38.429Z,20.6
2018-07-15T00:53:39.822Z,20.6
2018-07-15T00:54:41.220Z,20.5
2018-07-15T00:55:42.614Z,20.5
2018-07-15T00:56:44.007Z,20.6
2018-07-15T00:57:45.409Z,20.6
2018-07-15T00:58:46.805Z,20.6
2018-07-15T00:59:48.203Z,20.4
2018-07-15T01:00:49.603Z,20.6
2018-07-15T01:01:50.995Z,20.6
2018-07-15T01:02:52.387Z,20.6
2018-07-15T01:03:53.787Z,20.6
2018-07-15T01:04:55.220Z,20.6
2018-07-15T01:05:56.616Z,20.6
2018-07-15T01:06:58.008Z,20.5
2018-07-15T01:07:59.410Z,20.5
2018-07-15T01:09:00.802Z,20.6
2018-07-15T01:10:02.195Z,20.5
2018-07-15T01:11:03.589Z,20.5
2018-07-15T01:12:04.989Z,20.4
2018-07-15T01:13:06.385Z,20.3
2018-07-15T01:14:07.774Z,20.4
2018-07-15T01:15:09.170Z,20.4
2018-07-15T01:16:10.564Z,20.4
2018-07-15T01:17:11.957Z,20.3
2018-07-15T01:18:13.358Z,20.3
2018-07-15T01:19:14.753Z,20.3
2018-07-15T01:20:16.152Z,20.2
2018-07-15T01:21:17.551Z,20.2
2018-07-15T01:22:18.947Z,20.2
2018-07-15T01:23:20.337Z,20.2
2018-07-15T01:24:21.732Z,20.2
2018-07-15T01:25:23.188Z,20.2
2018-07-15T01:26:24.587Z,20.1
2018-07-15T01:27:25.983Z,20.1
2018-07-15T01:28:27.381Z,20.0
2018-07-15T01:29:28.777Z,20.1
2018-07-15T01:30:30.167Z,20.0
2018-07-15T01:31:31.559Z,19.9
2018-07-15T01:32:32.954Z,19.9
2018-07-15T01:33:34.357Z,19.9
2018-07-15T01:34:35.746Z,19.9
2018-07-15T01:35:37.137Z,19.9
2018-07-15T01:36:38.538Z,19.8
2018-07-15T01:37:39.931Z,19.8
2018-07-15T01:38:41.322Z,19.8
2018-07-15T01:39:42.723Z,19.6
2018-07-15T01:40:44.120Z,19.8
2018-07-15T01:41:45.513Z,19.7
2018-07-15T01:42:46.914Z,19.6
2018-07-15T01:43:48.313Z,19.6
2018-07-15T01:44:49.703Z,19.6
2018-07-15T01:45:51.098Z,19.6
2018-07-15T01:46:52.495Z,19.6
2018-07-15T01:47:53.895Z,19.5
2018-07-15T01:48:55.291Z,19.5
2018-07-15T01:49:56.683Z,19.4
2018-07-15T01:50:58.078Z,19.4
2018-07-15T01:51:59.471Z,19.4
2018-07-15T01:53:00.864Z,19.5
2018-07-15T01:54:02.269Z,19.4
2018-07-15T01:55:03.661Z,19.3
2018-07-15T01:56:05.058Z,19.3
2018-07-15T01:57:06.453Z,19.2
2018-07-15T01:58:07.847Z,19.2
2018-07-15T01:59:09.431Z,19.2
2018-07-15T02:00:10.832Z,19.2
2018-07-15T02:01:12.225Z,19.2
2018-07-15T02:02:13.619Z,19.3
2018-07-15T02:03:15.014Z,19.3
2018-07-15T02:04:16.411Z,19.2
2018-07-15T02:05:17.821Z,19.2
2018-07-15T02:06:19.203Z,19.1
2018-07-15T02:07:20.596Z,19.1
2018-07-15T02:08:22.036Z,19.1
2018-07-15T02:09:23.431Z,19.1
2018-07-15T02:10:24.823Z,19.1
2018-07-15T02:11:26.219Z,19.1
2018-07-15T02:12:27.620Z,19.1
2018-07-15T02:13:29.012Z,19.0
2018-07-15T02:14:30.405Z,19.0
2018-07-15T02:15:31.801Z,19.0
2018-07-15T02:16:33.195Z,19.1
2018-07-15T02:17:34.588Z,19.1
2018-07-15T02:18:35.986Z,19.1
2018-07-15T02:19:37.378Z,19.1
2018-07-15T02:20:38.771Z,19.1
2018-07-15T02:21:40.167Z,19.0
2018-07-15T02:22:41.559Z,19.0
2018-07-15T02:23:42.949Z,19.0
2018-07-15T02:24:44.347Z,19.1
2018-07-15T02:25:45.744Z,19.0
2018-07-15T02:26:47.143Z,19.1
2018-07-15T02:27:48.534Z,19.1
2018-07-15T02:28:49.925Z,19.0
2018-07-15T02:29:51.325Z,19.0
2018-07-15T02:30:52.724Z,19.1
2018-07-15T02:31:54.122Z,19.0
2018-07-15T02:32:55.515Z,19.0
2018-07-15T02:33:56.914Z,19.1
2018-07-15T02:34:58.302Z,19.0
2018-07-15T02:35:59.695Z,18.9
2018-07-15T02:37:01.086Z,19.0
2018-07-15T02:38:02.476Z,19.0
2018-07-15T02:39:03.870Z,18.9
2018-07-15T02:40:05.262Z,19.0
2018-07-15T02:41:06.657Z,18.9
2018-07-15T02:42:08.050Z,19.0
2018-07-15T02:43:09.440Z,18.9
2018-07-15T02:44:10.834Z,18.9
2018-07-15T02:45:12.225Z,18.9
2018-07-15T02:46:13.617Z,18.9
2018-07-15T02:47:15.015Z,18.9
2018-07-15T02:48:16.407Z,18.9
2018-07-15T02:49:17.802Z,18.8
2018-07-15T02:50:19.187Z,18.9
2018-07-15T02:51:20.616Z,18.7
2018-07-15T02:52:22.069Z,18.7
2018-07-15T02:53:23.465Z,18.7
2018-07-15T02:54:24.855Z,18.7
2018-07-15T02:55:26.252Z,18.7
2018-07-15T02:56:27.642Z,18.6
2018-07-15T02:57:29.031Z,18.6
2018-07-15T02:58:30.424Z,18.6
2018-07-15T02:59:31.822Z,18.6
2018-07-15T03:00:33.219Z,18.6
2018-07-15T03:01:34.614Z,18.5
2018-07-15T03:02:36.011Z,18.5
2018-07-15T03:03:37.402Z,18.5
2018-07-15T03:04:38.792Z,18.6
2018-07-15T03:05:40.182Z,18.6
2018-07-15T03:06:41.577Z,18.5
2018-07-15T03:07:42.967Z,18.4
2018-07-15T03:08:44.359Z,18.4
2018-07-15T03:09:45.756Z,18.4
2018-07-15T03:10:47.152Z,18.4
2018-07-15T03:11:48.542Z,18.4
2018-07-15T03:12:49.935Z,18.5
2018-07-15T03:13:51.334Z,18.4
2018-07-15T03:14:52.722Z,18.4
2018-07-15T03:15:54.119Z,18.4
2018-07-15T03:16:55.515Z,18.4
2018-07-15T03:17:56.903Z,18.4
2018-07-15T03:18:58.291Z,18.3
2018-07-15T03:19:59.684Z,18.5
2018-07-15T03:21:01.076Z,18.5
2018-07-15T03:22:02.471Z,18.4
2018-07-15T03:23:03.868Z,18.3
2018-07-15T03:24:05.271Z,18.4
2018-07-15T03:25:06.665Z,18.4
2018-07-15T03:26:08.058Z,18.4
2018-07-15T03:27:09.455Z,18.2
2018-07-15T03:28:10.846Z,18.2
2018-07-15T03:29:12.238Z,18.3
2018-07-15T03:30:13.632Z,18.2
2018-07-15T03:31:15.029Z,18.1
2018-07-15T03:32:16.420Z,18.1
2018-07-15T03:33:17.811Z,18.2
2018-07-15T03:34:19.207Z,18.1
2018-07-15T03:35:20.604Z,18.1
2018-07-15T03:36:21.995Z,18.1
2018-07-15T03:37:23.393Z,18.1
2018-07-15T03:38:24.792Z,18.1
2018-07-15T03:39:26.187Z,18.1
2018-07-15T03:40:27.582Z,18.1
2018-07-15T03:41:28.971Z,18.0
2018-07-15T03:42:30.364Z,18.1
2018-07-15T03:43:31.760Z,18.0
2018-07-15T03:44:33.155Z,17.9
2018-07-15T03:45:34.553Z,17.9
2018-07-15T03:46:35.946Z,17.9
2018-07-15T03:47:37.341Z,18.0
2018-07-15T03:48:38.740Z,18.0
2018-07-15T03:49:40.139Z,18.0
2018-07-15T03:50:41.576Z,17.9
2018-07-15T03:51:42.938Z,17.9
2018-07-15T03:52:44.332Z,18.0
2018-07-15T03:53:45.726Z,18.0
2018-07-15T03:54:47.117Z,18.0
2018-07-15T03:55:48.510Z,17.9
2018-07-15T03:56:49.906Z,17.9
2018-07-15T03:57:51.299Z,17.9
2018-07-15T03:58:52.699Z,17.9
2018-07-15T03:59:54.106Z,17.9
2018-07-15T04:00:55.498Z,17.9
2018-07-15T04:01:56.892Z,17.9
2018-07-15T04:02:58.284Z,17.9
2018-07-15T04:03:59.679Z,17.9
2018-07-15T04:05:01.084Z,18.0
2018-07-15T04:06:02.485Z,17.9
2018-07-15T04:07:03.886Z,17.9
2018-07-15T04:08:05.280Z,17.9
2018-07-15T04:09:06.681Z,17.9
2018-07-15T04:10:08.079Z,17.9
2018-07-15T04:11:09.475Z,17.9
2018-07-15T04:12:10.877Z,17.9
2018-07-15T04:13:12.275Z,17.9
2018-07-15T04:14:13.671Z,17.9
2018-07-15T04:15:15.063Z,17.9
2018-07-15T04:16:16.459Z,17.9
2018-07-15T04:17:17.859Z,17.9
2018-07-15T04:18:19.288Z,17.9
2018-07-15T04:19:20.705Z,17.9
2018-07-15T04:20:22.102Z,17.9
2018-07-15T04:21:23.500Z,17.9
2018-07-15T04:22:24.892Z,17.9
2018-07-15T04:23:26.287Z,17.9
2018-07-15T04:24:27.678Z,17.9
2018-07-15T04:25:29.078Z,18.0
2018-07-15T04:26:30.478Z,17.9
2018-07-15T04:27:31.875Z,17.9
2018-07-15T04:28:33.273Z,17.9
2018-07-15T04:29:34.669Z,17.9
2018-07-15T04:30:36.062Z,17.9
2018-07-15T04:31:37.457Z,17.9
2018-07-15T04:32:38.853Z,18.0
2018-07-15T04:33:40.252Z,18.0
2018-07-15T04:34:41.648Z,18.0
2018-07-15T04:35:43.055Z,18.0
2018-07-15T04:36:44.480Z,18.0
2018-07-15T04:37:45.888Z,18.0
2018-07-15T04:38:47.268Z,18.0
2018-07-15T04:39:48.664Z,18.0
2018-07-15T04:40:50.061Z,18.1
2018-07-15T04:41:51.455Z,18.1
2018-07-15T04:42:52.854Z,18.1
2018-07-15T04:43:54.325Z,18.2
2018-07-15T04:44:55.643Z,18.2
2018-07-15T04:45:57.046Z,18.2
2018-07-15T04:46:58.443Z,18.3
2018-07-15T04:47:59.844Z,18.3
2018-07-15T04:49:01.242Z,18.3
2018-07-15T04:50:02.643Z,18.4
2018-07-15T04:51:04.041Z,18.3
2018-07-15T04:52:05.437Z,18.4
2018-07-15T04:53:06.833Z,18.4
2018-07-15T04:54:08.228Z,18.4
2018-07-15T04:55:09.625Z,18.4
2018-07-15T04:56:11.020Z,18.4
2018-07-15T04:57:12.419Z,18.4
2018-07-15T04:58:13.814Z,18.5
2018-07-15T04:59:15.208Z,18.5
2018-07-15T05:00:16.604Z,18.6
2018-07-15T05:01:18.035Z,18.6
2018-07-15T05:02:19.436Z,18.6
2018-07-15T05:03:20.827Z,18.7
2018-07-15T05:04:22.263Z,18.7
2018-07-15T05:05:23.655Z,18.7
2018-07-15T05:06:25.047Z,18.7
2018-07-15T05:07:26.444Z,18.8
2018-07-15T05:08:27.846Z,18.7
2018-07-15T05:09:29.245Z,18.7
2018-07-15T05:10:30.641Z,18.8
2018-07-15T05:11:32.038Z,18.8
2018-07-15T05:12:33.435Z,18.9
2018-07-15T05:13:34.825Z,18.8
2018-07-15T05:14:36.232Z,18.9
2018-07-15T05:15:37.622Z,18.9
2018-07-15T05:16:39.015Z,19.0
2018-07-15T05:17:40.414Z,19.0
2018-07-15T05:18:41.811Z,19.1
2018-07-15T05:19:43.271Z,19.0
2018-07-15T05:20:44.599Z,19.0
2018-07-15T05:21:45.995Z,19.1
2018-07-15T05:22:47.389Z,19.1
2018-07-15T05:23:48.786Z,19.2
2018-07-15T05:24:50.211Z,19.2
2018-07-15T05:25:51.584Z,19.2
2018-07-15T05:26:52.979Z,19.4
2018-07-15T05:27:54.375Z,19.4
2018-07-15T05:28:55.774Z,19.4
2018-07-15T05:29:57.173Z,19.4
2018-07-15T05:30:58.570Z,19.4
2018-07-15T05:31:59.962Z,19.5
2018-07-15T05:33:01.360Z,19.4
2018-07-15T05:34:02.754Z,19.5
2018-07-15T05:35:04.280Z,19.4
2018-07-15T05:36:05.551Z,19.5
2018-07-15T05:37:06.950Z,19.5
2018-07-15T05:38:08.350Z,19.5
2018-07-15T05:39:09.747Z,19.6
2018-07-15T05:40:11.147Z,19.7
2018-07-15T05:41:12.540Z,19.7
2018-07-15T05:42:13.942Z,19.6
2018-07-15T05:43:15.341Z,19.7
2018-07-15T05:44:16.840Z,19.8
2018-07-15T05:45:18.222Z,19.8
2018-07-15T05:46:19.618Z,19.8
2018-07-15T05:47:21.016Z,19.8
2018-07-15T05:48:22.413Z,19.9
2018-07-15T05:49:23.852Z,19.9
2018-07-15T05:50:25.246Z,20.0
2018-07-15T05:51:26.648Z,20.0
2018-07-15T05:52:28.054Z,20.0
2018-07-15T05:53:29.553Z,20.0
2018-07-15T05:54:30.970Z,20.1
2018-07-15T05:55:32.369Z,20.2
2018-07-15T05:56:33.759Z,20.1
2018-07-15T05:57:35.153Z,20.1
2018-07-15T05:58:36.547Z,20.2
2018-07-15T05:59:37.956Z,20.3
2018-07-15T06:00:39.355Z,20.4
2018-07-15T06:01:40.761Z,20.5
2018-07-15T06:02:42.187Z,20.6
2018-07-15T06:03:43.586Z,20.5
2018-07-15T06:04:44.991Z,20.6
2018-07-15T06:05:46.390Z,20.7
2018-07-15T06:06:48.010Z,20.8
2018-07-15T06:07:49.412Z,20.8
2018-07-15T06:08:50.814Z,20.9
2018-07-15T06:09:52.213Z,20.9
2018-07-15T06:10:53.611Z,20.9
2018-07-15T06:11:55.010Z,21.0
2018-07-15T06:12:56.428Z,21.0
2018-07-15T06:13:57.829Z,21.0
2018-07-15T06:14:59.228Z,21.0
2018-07-15T06:16:00.625Z,21.1
2018-07-15T06:17:02.089Z,21.2
2018-07-15T06:18:03.402Z,21.2
2018-07-15T06:19:04.771Z,21.3
2018-07-15T06:20:06.189Z,21.3
2018-07-15T06:21:07.588Z,21.3
2018-07-15T06:22:08.984Z,21.3
2018-07-15T06:23:10.385Z,21.4
2018-07-15T06:24:11.780Z,21.5
2018-07-15T06:25:13.187Z,21.4
2018-07-15T06:26:14.586Z,21.5
2018-07-15T06:27:16.018Z,21.5
2018-07-15T06:28:17.415Z,21.6
2018-07-15T06:29:18.810Z,21.6
2018-07-15T06:30:20.209Z,21.7
2018-07-15T06:31:21.605Z,21.8
2018-07-15T06:32:23.001Z,21.8
2018-07-15T06:33:24.417Z,21.9
2018-07-15T06:34:25.820Z,22.0
2018-07-15T06:35:27.223Z,22.1
2018-07-15T06:36:28.623Z,22.1
2018-07-15T06:37:30.026Z,22.2
2018-07-15T06:38:31.456Z,22.2
2018-07-15T06:39:32.855Z,22.2
2018-07-15T06:40:34.274Z,22.3
2018-07-15T06:41:35.680Z,22.4
2018-07-15T06:42:37.242Z,22.4
2018-07-15T06:43:38.626Z,22.5
2018-07-15T06:44:40.128Z,22.4
2018-07-15T06:45:41.663Z,22.4
2018-07-15T06:46:43.062Z,22.5
2018-07-15T06:47:44.460Z,22.6
2018-07-15T06:48:45.879Z,22.6
2018-07-15T06:49:47.356Z,22.6
2018-07-15T06:50:48.755Z,22.8
2018-07-15T06:51:50.156Z,22.8
2018-07-15T06:52:51.552Z,22.9
2018-07-15T06:53:52.951Z,22.9
2018-07-15T06:54:54.364Z,23.0
2018-07-15T06:55:55.816Z,23.0
2018-07-15T06:56:57.163Z,23.2
2018-07-15T06:57:58.556Z,23.1
2018-07-15T06:58:59.957Z,23.2
2018-07-15T07:00:01.351Z,23.3
2018-07-15T07:01:02.750Z,23.4
2018-07-15T07:02:04.147Z,23.4
2018-07-15T07:03:05.549Z,23.4
2018-07-15T07:04:06.947Z,23.5
2018-07-15T07:05:08.354Z,23.5
2018-07-15T07:06:09.753Z,23.4
2018-07-15T07:07:11.205Z,23.5
2018-07-15T07:08:12.548Z,23.6
2018-07-15T07:09:13.987Z,23.7
2018-07-15T07:10:15.391Z,23.6
2018-07-15T07:11:16.915Z,23.8
2018-07-15T07:12:18.319Z,23.8
2018-07-15T07:13:19.747Z,23.8
2018-07-15T07:14:21.150Z,23.8
2018-07-15T07:15:22.551Z,23.9
2018-07-15T07:16:23.952Z,23.9
2018-07-15T07:17:25.356Z,24.0
2018-07-15T07:18:26.776Z,24.2
2018-07-15T07:19:28.191Z,24.3
2018-07-15T07:20:29.635Z,24.3
2018-07-15T07:21:31.058Z,24.3
2018-07-15T07:22:32.458Z,24.2
2018-07-15T07:23:33.861Z,24.3
2018-07-15T07:24:35.262Z,24.3
2018-07-15T07:25:36.668Z,24.3
2018-07-15T07:26:38.071Z,24.5
2018-07-15T07:27:39.471Z,24.6
2018-07-15T07:28:40.895Z,24.6
2018-07-15T07:29:42.353Z,24.7
2018-07-15T07:30:43.755Z,24.7
2018-07-15T07:31:45.155Z,24.7
2018-07-15T07:32:46.558Z,24.9
2018-07-15T07:33:47.961Z,24.9
2018-07-15T07:34:49.524Z,25.0
2018-07-15T07:35:50.960Z,25.0
2018-07-15T07:36:52.346Z,25.1
2018-07-15T07:37:53.748Z,25.1
2018-07-15T07:38:55.147Z,25.2
2018-07-15T07:39:56.555Z,25.3
2018-07-15T07:40:57.953Z,25.3
2018-07-15T07:41:59.355Z,25.4
2018-07-15T07:43:00.761Z,25.6
2018-07-15T07:44:02.154Z,25.6
2018-07-15T07:45:03.617Z,25.6
2018-07-15T07:46:05.026Z,25.8
2018-07-15T07:47:06.433Z,25.8
2018-07-15T07:48:07.991Z,25.9
2018-07-15T07:49:09.401Z,25.9
2018-07-15T07:50:10.816Z,26.1
2018-07-15T07:51:12.211Z,26.0
2018-07-15T07:52:13.613Z,26.2
2018-07-15T07:53:15.035Z,26.2
2018-07-15T07:54:16.424Z,26.3
2018-07-15T07:55:17.824Z,26.3
2018-07-15T07:56:19.282Z,26.4
2018-07-15T07:57:20.678Z,26.5
2018-07-15T07:58:22.118Z,26.5
2018-07-15T07:59:23.513Z,26.5
2018-07-15T08:00:24.911Z,26.5
2018-07-15T08:01:26.312Z,26.6
2018-07-15T08:02:27.726Z,26.5
2018-07-15T08:03:29.117Z,26.6
2018-07-15T08:04:30.574Z,26.6
2018-07-15T08:05:31.938Z,26.7
2018-07-15T08:06:33.336Z,26.7
2018-07-15T08:07:34.760Z,26.8
2018-07-15T08:08:36.135Z,26.8
2018-07-15T08:09:37.538Z,26.9
2018-07-15T08:10:38.943Z,26.9
2018-07-15T08:11:40.349Z,26.9
2018-07-15T08:12:41.749Z,27.1
2018-07-15T08:13:43.153Z,27.1
2018-07-15T08:14:44.636Z,27.2
2018-07-15T08:15:46.036Z,27.2
2018-07-15T08:16:47.432Z,27.2
2018-07-15T08:17:48.878Z,27.2
2018-07-15T08:18:50.268Z,27.3
2018-07-15T08:19:51.713Z,27.3
2018-07-15T08:20:53.115Z,27.3
2018-07-15T08:21:54.512Z,27.4
2018-07-15T08:22:56.018Z,27.5
2018-07-15T08:23:57.421Z,27.5
2018-07-15T08:24:58.855Z,27.5
2018-07-15T08:26:00.254Z,27.5
2018-07-15T08:27:01.705Z,27.5
2018-07-15T08:28:03.116Z,27.7
2018-07-15T08:29:04.532Z,27.7
2018-07-15T08:30:05.970Z,27.7
2018-07-15T08:31:07.373Z,27.8
2018-07-15T08:32:08.912Z,27.8
2018-07-15T08:33:10.350Z,27.9
2018-07-15T08:34:11.767Z,28.0
2018-07-15T08:35:13.194Z,27.9
2018-07-15T08:36:14.620Z,27.9
2018-07-15T08:37:16.019Z,27.9
2018-07-15T08:38:17.458Z,27.9
2018-07-15T08:39:18.880Z,27.9
2018-07-15T08:40:20.281Z,28.0
2018-07-15T08:41:21.686Z,28.0
2018-07-15T08:42:23.102Z,28.1
2018-07-15T08:43:24.538Z,28.0
2018-07-15T08:44:25.944Z,27.8
2018-07-15T08:45:27.701Z,27.9
2018-07-15T08:46:29.111Z,28.1
2018-07-15T08:47:30.557Z,28.2
2018-07-15T08:48:31.954Z,28.2
2018-07-15T08:49:33.356Z,28.3
2018-07-15T08:50:34.759Z,28.2
2018-07-15T08:51:36.272Z,28.2
2018-07-15T08:52:37.682Z,28.1
2018-07-15T08:53:39.093Z,28.1
2018-07-15T08:54:40.525Z,28.3
2018-07-15T08:55:41.914Z,28.3
2018-07-15T08:56:43.315Z,28.5
2018-07-15T08:57:44.762Z,28.5
2018-07-15T08:58:46.175Z,28.6
2018-07-15T08:59:47.578Z,28.7
2018-07-15T09:00:49.036Z,28.9
2018-07-15T09:01:50.440Z,28.9
2018-07-15T09:02:51.845Z,28.9
2018-07-15T09:03:53.306Z,28.9
2018-07-15T09:04:54.712Z,28.9
2018-07-15T09:05:56.106Z,29.0
2018-07-15T09:06:57.516Z,29.0
2018-07-15T09:07:58.920Z,28.9
2018-07-15T09:09:00.318Z,29.0
2018-07-15T09:10:01.722Z,29.1
2018-07-15T09:11:03.129Z,29.1
2018-07-15T09:12:04.528Z,29.2
2018-07-15T09:13:05.935Z,29.2
2018-07-15T09:14:07.365Z,29.2
2018-07-15T09:15:08.772Z,29.2
2018-07-15T09:16:10.175Z,29.2
2018-07-15T09:17:11.832Z,29.3
2018-07-15T09:18:13.230Z,29.2
2018-07-15T09:19:14.640Z,29.5
2018-07-15T09:20:16.153Z,29.5
2018-07-15T09:21:17.552Z,29.5
2018-07-15T09:22:18.957Z,29.5
2018-07-15T09:23:20.356Z,29.6
2018-07-15T09:24:21.756Z,29.7
2018-07-15T09:25:23.169Z,29.7
2018-07-15T09:26:24.574Z,29.7
2018-07-15T09:27:25.979Z,29.8
2018-07-15T09:28:27.396Z,29.9
2018-07-15T09:29:28.797Z,30.0
2018-07-15T09:30:30.194Z,30.1
2018-07-15T09:31:31.603Z,30.0
2018-07-15T09:32:33.007Z,30.0
2018-07-15T09:33:34.497Z,30.0
2018-07-15T09:34:35.903Z,30.0
2018-07-15T09:35:37.366Z,29.9
2018-07-15T09:36:38.725Z,30.0
2018-07-15T09:37:40.147Z,30.1
2018-07-15T09:38:41.544Z,30.2
2018-07-15T09:39:42.958Z,30.3
2018-07-15T09:40:44.415Z,30.4
2018-07-15T09:41:45.741Z,30.5
2018-07-15T09:42:47.193Z,30.5
2018-07-15T09:43:48.596Z,30.5
2018-07-15T09:44:49.998Z,30.4
2018-07-15T09:45:51.409Z,30.4
2018-07-15T09:46:52.806Z,30.3
2018-07-15T09:47:54.206Z,30.2
2018-07-15T09:48:55.811Z,30.3
2018-07-15T09:49:57.207Z,30.5
2018-07-15T09:50:58.644Z,30.5
2018-07-15T09:52:00.130Z,30.5
2018-07-15T09:53:01.650Z,30.6
2018-07-15T09:54:03.056Z,30.8
2018-07-15T09:55:04.545Z,30.8
2018-07-15T09:56:05.950Z,30.9
2018-07-15T09:57:07.354Z,30.9
2018-07-15T09:58:08.758Z,31.0
2018-07-15T09:59:10.173Z,30.9
2018-07-15T10:00:11.596Z,30.8
2018-07-15T10:01:12.998Z,30.9
2018-07-15T10:02:14.402Z,30.9
2018-07-15T10:03:15.920Z,30.8
2018-07-15T10:04:17.327Z,30.7
2018-07-15T10:05:18.731Z,30.7
2018-07-15T10:06:20.135Z,30.8
2018-07-15T10:07:21.540Z,30.9
2018-07-15T10:08:22.944Z,30.9
2018-07-15T10:09:24.341Z,30.9
2018-07-15T10:10:25.753Z,30.9
2018-07-15T10:11:27.158Z,31.1
2018-07-15T10:12:28.562Z,31.2
2018-07-15T10:13:29.964Z,31.2
2018-07-15T10:14:31.364Z,31.3
2018-07-15T10:15:32.765Z,31.3
2018-07-15T10:16:34.169Z,31.2
2018-07-15T10:17:35.690Z,31.2
2018-07-15T10:18:37.030Z,31.4
2018-07-15T10:19:38.439Z,31.5
2018-07-15T10:20:39.843Z,31.6
2018-07-15T10:21:41.245Z,31.6
2018-07-15T10:22:42.647Z,31.7
2018-07-15T10:23:44.048Z,31.7
2018-07-15T10:24:45.522Z,31.8
2018-07-15T10:25:46.928Z,31.9
2018-07-15T10:26:48.338Z,32.0
2018-07-15T10:27:49.752Z,32.1
2018-07-15T10:28:51.160Z,32.1
2018-07-15T10:29:52.565Z,31.9
2018-07-15T10:30:53.971Z,31.9
2018-07-15T10:31:55.374Z,31.8
2018-07-15T10:32:56.784Z,31.9
2018-07-15T10:33:58.192Z,32.0
2018-07-15T10:34:59.595Z,32.0
2018-07-15T10:36:00.999Z,32.0
2018-07-15T10:37:02.426Z,32.0
2018-07-15T10:38:03.808Z,32.1
2018-07-15T10:39:06.205Z,32.2
2018-07-15T10:40:07.520Z,32.2
2018-07-15T10:41:08.925Z,32.4
2018-07-15T10:42:10.332Z,32.5
2018-07-15T10:43:11.737Z,32.5
2018-07-15T10:44:13.161Z,32.5
2018-07-15T10:45:14.566Z,32.7
2018-07-15T10:46:15.972Z,32.7
2018-07-15T10:47:17.384Z,32.9
2018-07-15T10:48:19.424Z,33.0
2018-07-15T10:49:20.829Z,33.3
2018-07-15T10:50:23.143Z,33.4
2018-07-15T10:51:25.793Z,33.4
2018-07-15T10:52:27.578Z,33.2
2018-07-15T10:53:29.084Z,33.2
2018-07-15T10:54:30.491Z,33.3
2018-07-15T10:55:31.902Z,33.4
2018-07-15T10:56:33.323Z,33.5
2018-07-15T10:57:34.730Z,33.5
2018-07-15T10:58:36.511Z,33.6
2018-07-15T10:59:37.922Z,33.8
2018-07-15T11:00:39.325Z,34.1
2018-07-15T11:01:41.143Z,34.1
2018-07-15T11:02:42.553Z,34.1
2018-07-15T11:03:43.962Z,33.9
2018-07-15T11:04:45.373Z,34.0
2018-07-15T11:05:46.773Z,34.1
2018-07-15T11:06:48.176Z,34.3
2018-07-15T11:07:49.619Z,34.5
2018-07-15T11:08:50.987Z,34.8
2018-07-15T11:09:52.400Z,35.0
2018-07-15T11:10:53.802Z,35.1
2018-07-15T11:11:55.278Z,35.2
2018-07-15T11:12:56.693Z,35.2
2018-07-15T11:13:58.106Z,35.4
2018-07-15T11:14:59.521Z,35.5
2018-07-15T11:16:00.924Z,35.8
2018-07-15T11:17:02.400Z,36.1
2018-07-15T11:18:03.805Z,35.9
2018-07-15T11:19:05.210Z,35.8
2018-07-15T11:20:06.618Z,35.7
2018-07-15T11:21:08.029Z,35.7
2018-07-15T11:22:09.447Z,35.8
2018-07-15T11:23:10.860Z,36.1
2018-07-15T11:24:12.431Z,36.2
2018-07-15T11:25:13.839Z,36.3
2018-07-15T11:26:15.667Z,36.1
2018-07-15T11:27:17.025Z,35.8
2018-07-15T11:28:18.788Z,35.6
2018-07-15T11:29:20.195Z,35.4
2018-07-15T11:30:22.711Z,35.5
2018-07-15T11:31:24.199Z,35.6
2018-07-15T11:32:25.709Z,35.6
2018-07-15T11:33:27.403Z,35.2
2018-07-15T11:34:28.810Z,35.4
2018-07-15T11:35:31.264Z,35.4
2018-07-15T11:36:32.489Z,35.6
2018-07-15T11:37:33.901Z,35.8
2018-07-15T11:38:35.313Z,36.0
2018-07-15T11:39:36.719Z,36.1
2018-07-15T11:40:38.124Z,35.4
2018-07-15T11:41:39.540Z,35.1
2018-07-15T11:42:40.951Z,35.2
2018-07-15T11:43:42.361Z,35.2
2018-07-15T11:44:43.777Z,35.4
2018-07-15T11:45:45.203Z,35.7
2018-07-15T11:46:46.615Z,36.1
2018-07-15T11:47:48.019Z,36.2
2018-07-15T11:48:49.430Z,36.3
2018-07-15T11:49:50.848Z,36.4
2018-07-15T11:50:52.282Z,36.6
2018-07-15T11:51:53.690Z,36.7
2018-07-15T11:52:55.099Z,36.9
2018-07-15T11:53:56.619Z,36.9
2018-07-15T11:54:58.031Z,37.0
2018-07-15T11:55:59.432Z,37.1
2018-07-15T11:57:02.479Z,37.2
2018-07-15T11:58:03.892Z,37.3
2018-07-15T11:59:05.302Z,37.3
2018-07-15T12:00:06.713Z,37.3
2018-07-15T12:01:08.122Z,37.3
2018-07-15T12:02:09.531Z,37.0
2018-07-15T12:03:12.284Z,36.9
2018-07-15T12:04:13.929Z,37.0
2018-07-15T12:05:15.344Z,37.0
2018-07-15T12:06:17.001Z,37.1
2018-07-15T12:07:18.431Z,36.9
2018-07-15T12:08:21.030Z,36.9
2018-07-15T12:09:22.276Z,36.8
2018-07-15T12:10:23.683Z,36.7
2018-07-15T12:11:25.092Z,36.7
2018-07-15T12:12:26.504Z,36.9
2018-07-15T12:13:27.912Z,37.2
2018-07-15T12:14:29.328Z,37.3
2018-07-15T12:15:30.739Z,37.4
2018-07-15T12:16:32.151Z,37.4
2018-07-15T12:17:33.563Z,37.5
2018-07-15T12:18:34.970Z,37.7
2018-07-15T12:19:36.381Z,37.6
2018-07-15T12:20:37.913Z,37.4
2018-07-15T12:21:39.211Z,37.5
2018-07-15T12:22:40.618Z,37.4
2018-07-15T12:23:42.026Z,37.5
2018-07-15T12:24:43.431Z,37.5
2018-07-15T12:25:44.848Z,37.6
2018-07-15T12:26:46.256Z,37.8
2018-07-15T12:27:47.680Z,37.9
2018-07-15T12:28:49.094Z,38.0
2018-07-15T12:29:50.520Z,38.0
2018-07-15T12:30:52.018Z,38.1
2018-07-15T12:31:53.420Z,38.2
2018-07-15T12:32:54.833Z,38.3
2018-07-15T12:33:56.243Z,38.3
2018-07-15T12:34:57.661Z,38.4
2018-07-15T12:35:59.076Z,38.5
2018-07-15T12:37:00.488Z,38.6
2018-07-15T12:38:01.896Z,38.5
2018-07-15T12:39:03.310Z,38.5
2018-07-15T12:40:04.717Z,38.5
2018-07-15T12:41:06.134Z,38.5
2018-07-15T12:42:07.586Z,38.5
2018-07-15T12:43:08.996Z,38.6
2018-07-15T12:44:10.404Z,38.7
2018-07-15T12:45:11.805Z,38.6
2018-07-15T12:46:13.218Z,38.6
2018-07-15T12:47:14.625Z,38.7
2018-07-15T12:48:16.043Z,38.5
2018-07-15T12:49:17.457Z,38.4
2018-07-15T12:50:18.947Z,38.4
2018-07-15T12:51:20.353Z,38.5
2018-07-15T12:52:21.759Z,38.3
2018-07-15T12:53:23.210Z,38.3
2018-07-15T12:54:24.637Z,38.3
2018-07-15T12:55:26.046Z,38.3
2018-07-15T12:56:27.546Z,38.3
2018-07-15T12:57:28.962Z,38.4
2018-07-15T12:58:30.383Z,38.5
2018-07-15T12:59:31.796Z,38.4
2018-07-15T13:00:33.509Z,38.4
2018-07-15T13:01:34.985Z,38.3
2018-07-15T13:02:36.438Z,38.1
2018-07-15T13:03:37.795Z,37.9
2018-07-15T13:04:39.210Z,37.8
2018-07-15T13:05:40.672Z,38.0
2018-07-15T13:06:42.107Z,38.0
2018-07-15T13:07:43.517Z,38.0
2018-07-15T13:08:44.929Z,38.0
2018-07-15T13:09:46.388Z,38.1
2018-07-15T13:10:47.798Z,38.3
2018-07-15T13:11:49.209Z,38.5
2018-07-15T13:12:50.621Z,38.7
2018-07-15T13:13:52.028Z,38.7
2018-07-15T13:14:53.443Z,38.8
2018-07-15T13:15:54.860Z,38.9
2018-07-15T13:16:56.293Z,38.9
2018-07-15T13:17:57.724Z,39.0
2018-07-15T13:18:59.136Z,39.1
2018-07-15T13:20:00.564Z,39.1
2018-07-15T13:21:01.966Z,39.1
2018-07-15T13:22:03.414Z,38.9
2018-07-15T13:23:04.827Z,38.8
2018-07-15T13:24:06.245Z,38.7
2018-07-15T13:25:07.664Z,38.7
2018-07-15T13:26:09.380Z,38.8
2018-07-15T13:27:10.800Z,38.7
2018-07-15T13:28:12.212Z,38.5
2018-07-15T13:29:13.620Z,38.4
2018-07-15T13:30:15.029Z,38.5
2018-07-15T13:31:16.483Z,38.5
2018-07-15T13:32:17.890Z,38.4
2018-07-15T13:33:19.321Z,38.6
2018-07-15T13:34:20.731Z,38.4
2018-07-15T13:35:22.136Z,38.6
2018-07-15T13:36:23.551Z,38.6
2018-07-15T13:37:25.033Z,38.4